Billings, MT

11:06 AM MDT on October 01, 2014 (GMT -0600)
Downtown Billings | Change Station
CLOSE
Current Station
Personal Weather Station
Location: Billings, MT
Elevation: 3127 ft
Nearby Weather Stations

Elev 3127 ft 45.78 °N, 108.50 °W | Updated 1 minute ago

Mostly Cloudy
Mostly Cloudy
53.0 °F
Feels Like 53.0 °F
N
6.7
Wind Variable Wind from West
Gusts 14.1 mph

Today
High -- | Low -- °F
--% Chance of Precip.
Yesterday
High -- | Low -- °F
Precip. -- in
7:12 AM 6:53 PM
Waxing Crescent, 49% visible
Pressure 29.96 in
Visibility 10.0 miles
Clouds Few 4100 ft
Scattered Clouds 5500 ft
Scattered Clouds 10000 ft
Dew Point 38 °F
Humidity 56%
Rainfall -999.00 in
Snow Depth 1 in , 0 in , 1 in
UV 3 out of 12
Pollen 3.00 out of 12
Air Quality Not available.
Flu Activity Not available.
SPECI KBIL 011655Z 30014KT 10SM FEW041 SCT055 SCT100 13/01 A2996

More Conditions Fewer Conditions

Pressure 29.96 in
Visibility 10.0 miles
Clouds Few 4100 ft
Scattered Clouds 5500 ft
Scattered Clouds 10000 ft
Dew Point 38 °F
Humidity 56%
Rainfall -999.00 in
Snow Depth 1 in , 0 in , 1 in
UV 3 out of 12
Pollen 3.00 out of 12
Air Quality Not available.
Flu Activity Not available.
SPECI KBIL 011655Z 30014KT 10SM FEW041 SCT055 SCT100 13/01 A2996

More Conditions Fewer Conditions

10-Day Weather Forecast

Almanac

Astronomy

Oct. 01, 2014 Rise Set
Actual Time 7:12 AM MDT 6:53 PM MDT
Civil Twilight 6:42 AM MDT 7:23 PM MDT
Nautical Twilight 6:08 AM MDT 7:58 PM MDT
Astronomical Twilight 5:32 AM MDT 8:33 PM MDT
Moon 2:29 PM MDT No Moon Set
Length of Visible Light 12h 40m
Length of Day
11h 41m
Tomorrow will be 3m 11s shorter.
Waxing Crescent, 49% of the Moon is Illuminated
Today
Waxing Crescent
Oct 1
First Quarter
Oct 8
Full
Oct 15
Last Quarter
Oct 23
New

Today's Extremes

State Highs State Lows

Community

WunderPhotos

Upload Photos

1,757,985 photos uploaded!

WunderBlogs® & News

By Dr. Jeff Masters
Director of Meteorology, Weather Underground
By Kari Strenfel
Meteorologist, Weather Underground
By Christopher C. Burt
Weather Historian, Weather Underground
October 1, 2014
October 1, 2014
October 1, 2014

Nearby

Snow Depth

Station Depth Elevation
Brackett Creek 1 in 7320 ft
Daisy Peak 0 in 7600 ft
Beaver Creek 1 in 7850 ft
Many Glacier 0 in 4900 ft
Waldron 0 in 5600 ft

Earthquake Activity

City Distance Mag. Time & Date
No recent earthquake activity has been reported nearby.
Minimum magnitude displayed is 2.5.

Coastal Water Temperatures

Place Temperature
No Stations Reporting

Nearby Weather Stations